Time;durP1;ratioP1;P1;durP2;ratioP2;P2;SDS_P1;SDS_P2;PMS_P1;PMS_P2;Temp;Humidity;BMP_temperature;BMP_pressure;BME280_temperature;BME280_humidity;BME280_pressure;Samples;Min_cycle;Max_cycle;Signal;HPM_P1;HPM_P2
2021/07/09 00:03:11;;;;;;;2.53;2.33;;;21.70;99.90;;;;;;6067871;29;20197;-70
2021/07/09 00:06:13;;;;;;;2.70;2.50;;;21.70;99.90;;;;;;6052698;29;20212;-69
2021/07/09 00:09:16;;;;;;;2.80;2.60;;;21.70;99.90;;;;;;6054196;29;20193;-70
2021/07/09 00:12:19;;;;;;;2.37;2.13;;;21.70;99.90;;;;;;6052595;29;20745;-71
2021/07/09 00:15:21;;;;;;;2.90;2.60;;;21.60;99.90;;;;;;6054203;29;20205;-70
2021/07/09 00:18:24;;;;;;;2.90;2.60;;;21.70;99.90;;;;;;6052673;29;20693;-70
2021/07/09 00:21:26;;;;;;;2.83;2.63;;;21.60;99.90;;;;;;6053943;29;20614;-71
2021/07/09 00:24:29;;;;;;;3.00;2.60;;;21.50;99.90;;;;;;6037298;29;20229;-71
2021/07/09 00:27:31;;;;;;;2.63;2.43;;;21.50;99.90;;;;;;6036976;29;20209;-70
2021/07/09 00:30:33;;;;;;;3.13;2.77;;;21.40;99.90;;;;;;6053903;29;20325;-71
2021/07/09 00:33:36;;;;;;;2.73;2.30;;;21.40;99.90;;;;;;6089689;29;20228;-70
2021/07/09 00:36:38;;;;;;;3.00;2.30;;;21.30;99.90;;;;;;6059660;29;20205;-70
2021/07/09 00:39:40;;;;;;;3.63;2.33;;;21.30;99.90;;;;;;6058514;29;20234;-71
2021/07/09 00:42:43;;;;;;;5.07;3.07;;;21.30;99.90;;;;;;6056768;29;20236;-71
2021/07/09 00:45:45;;;;;;;3.07;2.70;;;21.30;99.90;;;;;;6058220;29;20709;-70
2021/07/09 00:48:48;;;;;;;3.13;2.83;;;21.20;99.90;;;;;;6057623;29;20955;-70
2021/07/09 00:51:50;;;;;;;2.80;2.60;;;21.20;99.90;;;;;;6056811;29;20197;-70
2021/07/09 00:54:52;;;;;;;2.60;2.40;;;21.10;99.90;;;;;;6041345;29;20209;-70
2021/07/09 00:57:55;;;;;;;5.50;2.10;;;21.10;99.90;;;;;;6057694;29;20199;-71
2021/07/09 01:00:58;;;;;;;3.70;2.30;;;21.00;99.90;;;;;;6059354;29;20194;-70
2021/07/09 01:04:00;;;;;;;1.70;1.60;;;21.00;99.90;;;;;;6060535;29;20201;-71
2021/07/09 01:07:04;;;;;;;2.87;1.80;;;20.80;99.90;;;;;;6057866;29;20193;-70
2021/07/09 01:10:24;;;;;;;1.90;1.60;;;20.70;99.90;;;;;;6048893;29;20210;-69
2021/07/09 01:13:27;;;;;;;5.60;1.80;;;20.50;99.90;;;;;;6047935;29;20197;-69
2021/07/09 01:16:29;;;;;;;3.83;1.80;;;20.30;99.90;;;;;;6056311;29;20218;-69
2021/07/09 01:19:31;;;;;;;3.17;1.60;;;20.20;99.90;;;;;;6057022;29;20326;-69
2021/07/09 01:22:42;;;;;;;2.97;1.40;;;20.10;99.90;;;;;;6057530;29;20698;-70
2021/07/09 01:25:46;;;;;;;2.17;1.00;;;19.90;99.90;;;;;;6040395;29;20209;-69
2021/07/09 01:28:48;;;;;;;2.30;0.90;;;19.80;99.90;;;;;;6057282;29;20197;-70
2021/07/09 01:31:50;;;;;;;2.30;1.00;;;19.60;99.90;;;;;;6065173;29;20283;-69
2021/07/09 01:34:53;;;;;;;3.43;0.87;;;19.60;99.90;;;;;;6059040;29;20257;-70
2021/07/09 01:38:06;;;;;;;0.97;0.60;;;19.60;99.90;;;;;;6057118;29;20205;-70
2021/07/09 01:41:08;;;;;;;1.80;0.80;;;19.40;99.90;;;;;;6056895;29;20280;-70
2021/07/09 01:44:11;;;;;;;0.50;0.50;;;19.30;99.90;;;;;;6055394;29;20343;-70
2021/07/09 01:47:13;;;;;;;1.20;0.43;;;19.30;99.90;;;;;;6055809;29;20198;-71
2021/07/09 01:50:16;;;;;;;1.67;0.50;;;19.20;99.90;;;;;;6056835;29;20325;-70
2021/07/09 01:53:19;;;;;;;1.90;0.60;;;19.10;99.90;;;;;;6056944;29;20194;-71
2021/07/09 01:56:21;;;;;;;1.73;0.87;;;19.10;99.90;;;;;;6056356;29;20213;-70
2021/07/09 01:59:23;;;;;;;1.00;0.30;;;19.10;99.90;;;;;;6056531;29;20658;-70
2021/07/09 02:02:27;;;;;;;0.77;0.33;;;19.00;99.90;;;;;;6068925;29;20201;-70
2021/07/09 02:05:29;;;;;;;0.43;0.40;;;19.00;99.90;;;;;;6078191;29;20197;-69
2021/07/09 02:08:32;;;;;;;0.30;0.30;;;18.90;99.90;;;;;;6055475;29;20665;-70
2021/07/09 02:11:34;;;;;;;0.73;0.43;;;18.90;99.90;;;;;;6055786;29;20203;-70
2021/07/09 02:14:37;;;;;;;0.73;0.30;;;18.90;99.90;;;;;;6056408;29;20218;-70
2021/07/09 02:17:40;;;;;;;0.30;0.30;;;18.80;99.90;;;;;;6054874;29;20214;-70
2021/07/09 02:20:43;;;;;;;0.33;0.30;;;18.70;99.90;;;;;;6054921;29;20202;-70
2021/07/09 02:23:46;;;;;;;0.60;0.40;;;18.70;99.90;;;;;;6055125;29;20190;-70
2021/07/09 02:26:48;;;;;;;1.00;0.30;;;18.70;99.90;;;;;;6055642;29;20232;-70
2021/07/09 02:29:53;;;;;;;0.30;0.30;;;18.70;99.90;;;;;;6055785;29;20205;-70
2021/07/09 02:32:55;;;;;;;0.37;0.30;;;18.60;99.90;;;;;;6063453;29;20213;-71
2021/07/09 02:35:57;;;;;;;0.83;0.40;;;18.50;99.90;;;;;;6054481;29;20221;-70
2021/07/09 02:39:00;;;;;;;0.30;0.30;;;18.50;99.90;;;;;;6055550;29;20568;-71
2021/07/09 02:42:02;;;;;;;1.23;0.50;;;18.50;99.90;;;;;;6054278;29;20201;-70
2021/07/09 02:45:05;;;;;;;0.30;0.30;;;18.40;99.90;;;;;;6055534;29;20320;-70
2021/07/09 02:48:07;;;;;;;3.77;0.60;;;18.40;99.90;;;;;;6054245;29;20194;-70
2021/07/09 02:51:09;;;;;;;0.80;0.50;;;18.40;99.90;;;;;;6031409;29;20659;-69
2021/07/09 02:54:12;;;;;;;0.60;0.30;;;18.40;99.90;;;;;;6058462;29;20584;-70
2021/07/09 02:57:14;;;;;;;0.40;0.40;;;18.40;99.90;;;;;;6049361;29;20226;-70
2021/07/09 03:00:19;;;;;;;0.40;0.40;;;18.40;99.90;;;;;;6054002;29;20662;-70
2021/07/09 03:03:21;;;;;;;1.00;0.50;;;18.30;99.90;;;;;;6063350;29;20189;-71
2021/07/09 03:06:23;;;;;;;0.73;0.53;;;18.30;99.90;;;;;;6054012;29;20688;-70
2021/07/09 03:09:25;;;;;;;0.50;0.50;;;18.30;99.90;;;;;;6053430;29;20198;-70
2021/07/09 03:12:29;;;;;;;0.60;0.60;;;18.30;99.90;;;;;;6055176;29;20326;-69
2021/07/09 03:15:31;;;;;;;0.87;0.80;;;18.30;99.90;;;;;;6053766;29;20684;-71
2021/07/09 03:18:34;;;;;;;0.80;0.70;;;18.30;99.90;;;;;;6054613;29;20285;-70
2021/07/09 03:21:37;;;;;;;1.10;0.80;;;18.20;99.90;;;;;;6038202;29;20197;-70
2021/07/09 03:24:39;;;;;;;1.17;0.60;;;18.30;99.90;;;;;;6053292;29;20208;-70
2021/07/09 03:27:41;;;;;;;0.70;0.70;;;18.20;99.90;;;;;;6053596;29;20673;-70
2021/07/09 03:30:44;;;;;;;2.60;0.80;;;18.20;99.90;;;;;;6053587;29;20197;-70
2021/07/09 03:33:46;;;;;;;0.50;0.50;;;18.20;99.90;;;;;;6068745;29;20256;-71
2021/07/09 03:36:50;;;;;;;1.97;0.47;;;18.20;99.90;;;;;;6049982;29;20224;-69
2021/07/09 03:39:53;;;;;;;1.80;0.90;;;18.20;99.90;;;;;;6053851;29;20193;-70
2021/07/09 03:42:55;;;;;;;0.80;0.80;;;18.20;99.90;;;;;;6054269;29;20296;-70
2021/07/09 03:45:57;;;;;;;2.10;0.63;;;18.20;99.90;;;;;;6053603;29;20339;-70
2021/07/09 03:48:59;;;;;;;1.80;0.90;;;18.20;99.90;;;;;;6053117;29;20779;-71
2021/07/09 03:52:02;;;;;;;0.73;0.70;;;18.20;99.90;;;;;;6054106;29;20198;-70
2021/07/09 03:55:06;;;;;;;0.50;0.50;;;18.20;99.90;;;;;;6052652;29;20205;-70
2021/07/09 03:58:09;;;;;;;0.50;0.50;;;18.20;99.90;;;;;;6053964;29;20580;-70
2021/07/09 04:01:16;;;;;;;1.23;0.70;;;18.30;99.90;;;;;;6055816;29;20203;-70
2021/07/09 04:04:18;;;;;;;0.60;0.50;;;18.30;99.90;;;;;;6072120;29;20689;-70
2021/07/09 04:07:20;;;;;;;0.70;0.70;;;18.30;99.90;;;;;;6054028;29;20205;-70
2021/07/09 04:10:23;;;;;;;1.67;0.70;;;18.30;99.90;;;;;;6056457;29;20189;-71
2021/07/09 04:13:25;;;;;;;2.10;0.90;;;18.40;99.90;;;;;;6057472;29;20205;-70
2021/07/09 04:16:27;;;;;;;0.77;0.53;;;18.30;99.90;;;;;;6056704;29;20228;-71
2021/07/09 04:19:30;;;;;;;0.80;0.60;;;18.30;99.90;;;;;;6058544;29;20190;-70
2021/07/09 04:22:32;;;;;;;0.63;0.60;;;18.30;99.90;;;;;;6058586;29;20205;-71
2021/07/09 04:25:34;;;;;;;0.67;0.60;;;18.30;99.90;;;;;;6057962;29;20189;-71
2021/07/09 04:28:37;;;;;;;1.60;0.50;;;18.40;99.90;;;;;;6057193;29;20205;-71
2021/07/09 04:31:39;;;;;;;0.50;0.50;;;18.60;99.90;;;;;;6062679;29;20242;-70
2021/07/09 04:34:41;;;;;;;0.90;0.60;;;18.70;99.90;;;;;;6058632;29;20562;-70
2021/07/09 04:37:43;;;;;;;2.17;0.70;;;18.70;99.90;;;;;;6058012;29;20217;-71
2021/07/09 04:40:46;;;;;;;0.60;0.60;;;18.70;99.90;;;;;;6056992;29;20588;-71
2021/07/09 04:43:48;;;;;;;1.90;0.50;;;18.70;99.90;;;;;;6058485;29;20221;-71
2021/07/09 04:46:50;;;;;;;0.40;0.30;;;18.70;99.90;;;;;;6057722;29;20249;-70
2021/07/09 04:49:53;;;;;;;0.57;0.50;;;18.60;99.90;;;;;;6058179;29;20202;-71
2021/07/09 04:52:56;;;;;;;0.60;0.60;;;18.60;99.90;;;;;;6041178;29;20200;-70
2021/07/09 04:55:58;;;;;;;1.40;0.53;;;18.60;99.90;;;;;;6056563;29;20588;-71
2021/07/09 04:59:00;;;;;;;0.53;0.53;;;18.70;99.90;;;;;;6058385;29;20193;-70
2021/07/09 05:02:07;;;;;;;0.80;0.60;;;18.80;99.90;;;;;;6067953;29;20204;-71
2021/07/09 05:05:12;;;;;;;0.53;0.53;;;18.90;99.90;;;;;;6058981;29;20200;-70
2021/07/09 05:08:20;;;;;;;0.37;0.37;;;18.90;99.90;;;;;;6057435;29;20237;-71
2021/07/09 05:11:22;;;;;;;1.07;0.63;;;19.00;99.90;;;;;;6057523;29;20257;-71
2021/07/09 05:14:24;;;;;;;0.47;0.40;;;19.10;99.90;;;;;;6057624;29;20217;-70
2021/07/09 05:17:27;;;;;;;0.87;0.67;;;19.20;99.90;;;;;;6056343;29;20233;-70
2021/07/09 05:20:30;;;;;;;0.30;0.30;;;19.20;99.90;;;;;;6055154;29;20593;-72
2021/07/09 05:23:33;;;;;;;0.43;0.43;;;19.30;99.90;;;;;;6056684;29;20197;-71
2021/07/09 05:26:36;;;;;;;3.93;0.60;;;19.50;99.90;;;;;;6057072;29;20280;-70
2021/07/09 05:29:38;;;;;;;0.87;0.50;;;19.70;99.90;;;;;;6055819;29;20202;-71
2021/07/09 05:32:43;;;;;;;2.27;0.47;;;19.70;99.90;;;;;;6070518;29;20349;-71
2021/07/09 05:35:45;;;;;;;0.90;0.70;;;19.70;99.90;;;;;;6061931;29;20209;-71
2021/07/09 05:38:49;;;;;;;0.50;0.50;;;19.70;99.90;;;;;;6070687;29;20213;-71
2021/07/09 05:41:51;;;;;;;0.50;0.50;;;19.80;99.90;;;;;;6056654;29;20655;-70
2021/07/09 05:44:53;;;;;;;0.87;0.50;;;19.90;99.90;;;;;;6055145;29;20229;-71
2021/07/09 05:47:56;;;;;;;0.60;0.60;;;19.90;99.90;;;;;;6056741;29;20221;-71
2021/07/09 05:50:58;;;;;;;1.47;0.50;;;19.90;99.90;;;;;;6056613;29;20200;-70
2021/07/09 05:54:01;;;;;;;0.40;0.40;;;20.00;99.90;;;;;;6056029;29;20201;-71
2021/07/09 05:57:04;;;;;;;0.60;0.50;;;20.00;99.90;;;;;;6032452;29;20224;-71
2021/07/09 06:00:08;;;;;;;0.70;0.50;;;20.10;99.90;;;;;;6053178;29;20204;-70
2021/07/09 06:03:11;;;;;;;0.87;0.50;;;20.10;99.90;;;;;;6057388;29;20198;-70
2021/07/09 06:06:13;;;;;;;1.67;0.50;;;20.10;99.90;;;;;;6062785;29;20198;-70
2021/07/09 06:09:16;;;;;;;0.40;0.40;;;20.10;99.90;;;;;;6043204;29;20228;-71
2021/07/09 06:12:18;;;;;;;0.40;0.40;;;20.10;99.90;;;;;;6054996;29;20197;-71
2021/07/09 06:15:20;;;;;;;0.50;0.50;;;20.20;99.90;;;;;;6054823;29;20204;-71
2021/07/09 06:18:22;;;;;;;0.53;0.30;;;20.20;99.90;;;;;;6055982;29;20574;-71
2021/07/09 06:21:28;;;;;;;0.30;0.30;;;20.20;99.90;;;;;;6054415;29;20200;-71
2021/07/09 06:24:32;;;;;;;0.97;0.50;;;20.20;99.90;;;;;;6056181;29;20307;-72
2021/07/09 06:27:35;;;;;;;0.77;0.40;;;20.20;99.90;;;;;;6055837;29;20612;-71
2021/07/09 06:30:37;;;;;;;0.47;0.37;;;20.30;99.90;;;;;;6053897;29;20207;-71
2021/07/09 06:33:40;;;;;;;1.03;0.60;;;20.40;99.90;;;;;;6063332;29;20467;-72
2021/07/09 06:36:42;;;;;;;0.27;0.27;;;20.30;99.90;;;;;;6053793;29;20718;-70
2021/07/09 06:39:44;;;;;;;0.40;0.40;;;20.30;99.90;;;;;;6055632;29;20186;-71
2021/07/09 06:42:46;;;;;;;0.73;0.40;;;20.20;99.90;;;;;;6054340;29;20218;-71
2021/07/09 06:45:48;;;;;;;0.57;0.50;;;20.20;99.90;;;;;;6053752;29;20234;-71
2021/07/09 06:48:51;;;;;;;2.03;0.50;;;20.00;99.90;;;;;;6054240;29;20207;-72
2021/07/09 06:51:53;;;;;;;1.40;0.50;;;19.90;99.90;;;;;;6037876;29;20209;-68
2021/07/09 06:54:55;;;;;;;0.83;0.43;;;20.00;99.90;;;;;;6055247;29;20198;-70
2021/07/09 06:57:57;;;;;;;2.00;0.50;;;20.00;99.90;;;;;;6053644;29;20221;-72
2021/07/09 07:01:00;;;;;;;0.50;0.50;;;20.10;99.90;;;;;;6055258;29;20210;-72
2021/07/09 07:04:02;;;;;;;0.60;0.60;;;20.20;99.90;;;;;;6070188;29;20306;-71
2021/07/09 07:07:04;;;;;;;0.90;0.70;;;20.40;99.90;;;;;;6054526;29;20209;-72
2021/07/09 07:10:08;;;;;;;1.00;0.60;;;20.50;99.90;;;;;;6054833;29;20212;-71
2021/07/09 07:13:11;;;;;;;1.87;0.60;;;20.40;99.90;;;;;;6053369;29;20198;-71
2021/07/09 07:16:13;;;;;;;0.70;0.60;;;20.40;99.90;;;;;;6053404;29;20216;-71
2021/07/09 07:19:16;;;;;;;0.70;0.70;;;20.40;99.90;;;;;;6054729;29;20232;-70
2021/07/09 07:22:18;;;;;;;0.70;0.70;;;20.40;99.90;;;;;;6053942;29;20318;-71
2021/07/09 07:25:20;;;;;;;1.00;0.73;;;20.60;99.90;;;;;;6053473;29;20576;-71
2021/07/09 07:28:22;;;;;;;1.23;0.70;;;21.00;99.90;;;;;;6054004;29;20225;-71
2021/07/09 07:31:42;;;;;;;0.70;0.70;;;21.30;99.90;;;;;;6060312;29;20345;-71
2021/07/09 07:34:45;;;;;;;1.50;0.60;;;21.40;99.90;;;;;;6070634;29;20198;-71
2021/07/09 07:37:47;;;;;;;2.27;0.90;;;21.60;99.90;;;;;;6052602;29;20225;-71
2021/07/09 07:40:49;;;;;;;0.70;0.60;;;21.80;99.90;;;;;;6054373;29;20654;-71
2021/07/09 07:43:52;;;;;;;2.23;0.67;;;22.10;99.90;;;;;;6052897;29;20585;-71
2021/07/09 07:46:55;;;;;;;1.27;0.63;;;22.10;99.90;;;;;;6053138;29;20217;-71
2021/07/09 07:49:57;;;;;;;0.70;0.60;;;22.00;99.90;;;;;;6053691;29;20204;-71
2021/07/09 07:53:00;;;;;;;0.97;0.50;;;21.90;99.90;;;;;;6054282;29;20201;-71
2021/07/09 07:56:03;;;;;;;0.73;0.40;;;22.00;99.90;;;;;;6052962;29;20282;-72
2021/07/09 07:59:06;;;;;;;1.13;0.60;;;22.20;99.90;;;;;;6053630;29;20212;-72
2021/07/09 08:02:08;;;;;;;0.83;0.50;;;22.30;99.90;;;;;;6060888;29;20197;-71
2021/07/09 08:05:11;;;;;;;0.50;0.50;;;22.30;99.90;;;;;;6053543;29;20197;-71
2021/07/09 08:08:13;;;;;;;0.30;0.30;;;22.20;99.90;;;;;;6054182;29;20193;-72
2021/07/09 08:11:16;;;;;;;0.80;0.40;;;22.10;99.80;;;;;;6054003;29;20209;-71
2021/07/09 08:14:18;;;;;;;0.60;0.60;;;22.30;99.90;;;;;;6052336;29;20208;-72
2021/07/09 08:17:21;;;;;;;0.53;0.37;;;22.10;99.90;;;;;;6053401;29;20220;-71
2021/07/09 08:20:24;;;;;;;0.73;0.40;;;22.00;99.90;;;;;;6051324;29;20252;-71
2021/07/09 08:23:27;;;;;;;1.33;0.47;;;21.90;99.90;;;;;;6067039;29;20197;-72
2021/07/09 08:26:29;;;;;;;0.30;0.30;;;21.90;99.90;;;;;;6052435;29;20193;-71
2021/07/09 08:29:31;;;;;;;0.30;0.30;;;21.90;99.90;;;;;;6053007;29;20737;-72
2021/07/09 08:32:35;;;;;;;0.40;0.40;;;22.00;99.90;;;;;;6055897;29;20204;-72
2021/07/09 08:35:38;;;;;;;0.20;0.20;;;22.10;99.50;;;;;;6042733;29;20205;-72
2021/07/09 08:38:40;;;;;;;0.50;0.40;;;22.20;99.40;;;;;;6051403;29;20350;-72
2021/07/09 08:41:44;;;;;;;1.33;0.50;;;22.30;98.80;;;;;;6066644;29;20245;-72
2021/07/09 08:44:47;;;;;;;0.40;0.40;;;22.50;98.70;;;;;;6053471;29;20568;-72
2021/07/09 08:47:49;;;;;;;0.20;0.20;;;22.50;98.50;;;;;;6052056;29;20337;-71
2021/07/09 08:50:52;;;;;;;0.97;0.40;;;22.70;98.40;;;;;;6053137;29;20197;-71
2021/07/09 08:53:54;;;;;;;0.90;0.60;;;22.70;97.40;;;;;;6051984;29;20257;-71
2021/07/09 08:56:56;;;;;;;0.87;0.37;;;22.50;97.70;;;;;;6056416;29;20198;-71
2021/07/09 08:59:59;;;;;;;0.70;0.50;;;22.50;97.90;;;;;;6057732;29;20625;-71
2021/07/09 09:03:14;;;;;;;0.97;0.40;;;22.60;97.60;;;;;;6073487;29;20369;-72
2021/07/09 09:06:17;;;;;;;0.33;0.30;;;23.00;98.20;;;;;;6060352;29;20210;-71
2021/07/09 09:09:20;;;;;;;0.73;0.50;;;23.60;96.90;;;;;;6055839;29;20205;-71
2021/07/09 09:12:22;;;;;;;1.63;0.40;;;23.60;96.10;;;;;;6053629;29;20221;-71
2021/07/09 09:15:25;;;;;;;0.40;0.40;;;23.50;96.00;;;;;;6055669;29;20284;-73
2021/07/09 09:18:30;;;;;;;1.17;0.40;;;23.20;95.70;;;;;;6055178;29;20224;-72
2021/07/09 09:21:32;;;;;;;0.30;0.30;;;23.10;96.40;;;;;;6055929;29;20275;-72
2021/07/09 09:24:34;;;;;;;0.73;0.30;;;22.80;96.30;;;;;;6054164;29;20270;-71
2021/07/09 09:27:36;;;;;;;0.30;0.30;;;22.80;96.80;;;;;;6055878;29;20248;-72
2021/07/09 09:30:44;;;;;;;0.90;0.23;;;22.80;96.60;;;;;;6056789;29;21009;-71
2021/07/09 09:33:46;;;;;;;0.73;0.30;;;22.90;96.40;;;;;;6075279;29;20518;-71
2021/07/09 09:36:59;;;;;;;0.37;0.30;;;23.00;96.50;;;;;;6055523;29;20212;-71
2021/07/09 09:40:02;;;;;;;1.33;0.40;;;23.20;96.60;;;;;;6056895;29;20654;-73
2021/07/09 09:43:10;;;;;;;0.60;0.30;;;23.30;96.20;;;;;;5211185;29;10000373;-72
2021/07/09 09:46:15;;;;;;;0.30;0.30;;;23.20;94.70;;;;;;6046015;29;20241;-72
2021/07/09 09:49:17;;;;;;;0.30;0.30;;;23.10;94.60;;;;;;6070455;29;20574;-71
2021/07/09 09:52:40;;;;;;;0.73;0.30;;;23.20;94.70;;;;;;6055599;29;20754;-73
2021/07/09 09:55:43;;;;;;;0.37;0.30;;;23.30;94.40;;;;;;6042354;29;20543;-72
2021/07/09 09:58:45;;;;;;;0.40;0.40;;;23.30;94.30;;;;;;5217679;29;10000630;-72
2021/07/09 10:01:49;;;;;;;4.33;0.53;;;23.50;94.30;;;;;;6056576;29;20193;-71
2021/07/09 10:04:54;;;;;;;0.27;0.23;;;23.70;93.90;;;;;;6069573;29;20291;-71
2021/07/09 10:07:57;;;;;;;1.10;0.30;;;23.90;93.90;;;;;;6041578;29;20195;-72
2021/07/09 10:11:02;;;;;;;0.37;0.37;;;24.20;93.50;;;;;;6051472;29;20197;-71
2021/07/09 10:14:05;;;;;;;0.30;0.30;;;24.70;92.20;;;;;;6054181;29;20193;-72
2021/07/09 10:17:09;;;;;;;0.20;0.20;;;25.40;91.50;;;;;;6052802;29;20300;-72
2021/07/09 10:20:12;;;;;;;0.20;0.20;;;26.10;90.90;;;;;;6067902;29;20201;-71
2021/07/09 10:23:21;;;;;;;1.02;0.25;;;26.60;87.20;;;;;;6052789;29;20614;-72
2021/07/09 10:26:23;;;;;;;1.77;0.30;;;26.60;87.40;;;;;;6053749;29;20267;-72
2021/07/09 10:29:30;;;;;;;0.20;0.20;;;26.60;82.20;;;;;;6054526;29;20246;-72
2021/07/09 10:32:35;;;;;;;0.40;0.30;;;26.90;80.90;;;;;;6069349;29;20601;-72
2021/07/09 10:35:41;;;;;;;1.45;0.30;;;27.30;76.80;;;;;;6060699;29;20206;-73
2021/07/09 10:38:43;;;;;;;0.50;0.20;;;27.00;74.50;;;;;;6054426;29;20219;-72
2021/07/09 10:41:46;;;;;;;0.20;0.20;;;26.90;74.80;;;;;;6055309;29;20204;-72
2021/07/09 10:45:09;;;;;;;0.82;0.20;;;26.70;75.30;;;;;;6053327;29;20233;-71
2021/07/09 10:48:18;;;;;;;0.20;0.20;;;26.60;74.80;;;;;;6053972;29;20233;-72
2021/07/09 10:51:20;;;;;;;0.10;0.10;;;25.90;74.50;;;;;;6054755;29;20198;-71
2021/07/09 10:54:33;;;;;;;0.20;0.20;;;25.60;77.10;;;;;;6054507;29;20253;-72
2021/07/09 10:57:35;;;;;;;0.35;0.28;;;25.60;74.90;;;;;;6055000;29;20198;-71
2021/07/09 11:00:50;;;;;;;0.57;0.30;;;25.50;76.70;;;;;;6055296;29;20669;-72
2021/07/09 11:03:56;;;;;;;0.20;0.20;;;25.20;75.00;;;;;;6053628;29;20200;-72
2021/07/09 11:07:20;;;;;;;0.30;0.20;;;24.80;77.60;;;;;;6055165;29;20242;-72
2021/07/09 11:10:55;;;;;;;2.07;0.30;;;24.20;80.20;;;;;;6053444;29;20304;-71
2021/07/09 11:14:11;;;;;;;0.20;0.20;;;23.70;83.70;;;;;;6055001;29;20547;-72
2021/07/09 11:17:21;;;;;;;0.60;0.20;;;23.60;88.00;;;;;;6068737;29;20206;-71
2021/07/09 11:20:32;;;;;;;1.80;0.30;;;23.40;88.50;;;;;;6038801;29;20685;-71
2021/07/09 11:23:51;;;;;;;0.20;0.20;;;23.50;89.50;;;;;;6055072;29;20206;-70
2021/07/09 11:27:09;;;;;;;0.20;0.20;;;23.50;88.40;;;;;;6053345;29;20642;-71
2021/07/09 11:30:16;;;;;;;0.20;0.20;;;23.30;88.00;;;;;;6054115;29;20208;-70
2021/07/09 11:33:24;;;;;;;0.10;0.10;;;23.00;88.00;;;;;;6063293;29;20225;-70
2021/07/09 11:36:27;;;;;;;0.20;0.20;;;22.90;89.90;;;;;;6053313;29;20296;-71
2021/07/09 11:39:36;;;;;;;0.20;0.20;;;22.80;89.60;;;;;;6054431;29;20201;-70
2021/07/09 11:42:40;;;;;;;0.30;0.30;;;22.70;90.00;;;;;;6054082;29;20689;-71
2021/07/09 11:45:43;;;;;;;0.30;0.30;;;22.50;90.80;;;;;;6052990;29;20594;-72
2021/07/09 11:48:45;;;;;;;0.87;0.40;;;22.30;90.60;;;;;;6045094;29;20684;-71
2021/07/09 11:51:50;;;;;;;0.40;0.40;;;22.20;91.00;;;;;;6051099;29;20312;-71
2021/07/09 11:54:54;;;;;;;0.20;0.20;;;22.10;91.10;;;;;;6053768;29;20561;-71
2021/07/09 11:58:03;;;;;;;0.20;0.20;;;22.00;91.40;;;;;;6054125;29;20243;-71
2021/07/09 12:01:17;;;;;;;0.20;0.20;;;21.90;91.50;;;;;;6056210;29;20202;-71
2021/07/09 12:04:33;;;;;;;0.73;0.30;;;22.00;91.30;;;;;;6067318;29;20204;-71
2021/07/09 12:07:41;;;;;;;0.20;0.20;;;22.00;91.50;;;;;;6054043;29;20677;-71
2021/07/09 12:10:43;;;;;;;0.27;0.27;;;22.00;91.20;;;;;;6036882;29;20194;-71
2021/07/09 12:14:05;;;;;;;0.20;0.20;;;22.10;91.40;;;;;;6052834;29;20541;-71
2021/07/09 12:17:14;;;;;;;1.43;0.20;;;22.20;91.40;;;;;;6053597;29;20655;-71
2021/07/09 12:20:22;;;;;;;0.20;0.20;;;22.30;90.90;;;;;;6052688;29;20210;-71
2021/07/09 12:23:26;;;;;;;0.20;0.20;;;22.30;91.30;;;;;;6052832;29;20178;-71
2021/07/09 12:26:29;;;;;;;0.43;0.27;;;22.30;90.80;;;;;;6053470;29;20205;-71
2021/07/09 12:29:32;;;;;;;0.63;0.30;;;22.30;90.80;;;;;;6053818;29;20198;-71
2021/07/09 12:32:49;;;;;;;0.20;0.20;;;22.40;90.50;;;;;;6071721;29;20229;-71
2021/07/09 12:36:04;;;;;;;0.87;0.20;;;22.60;90.30;;;;;;6066213;29;20647;-72
2021/07/09 12:39:07;;;;;;;0.10;0.10;;;22.80;89.90;;;;;;6057798;29;20678;-71
2021/07/09 12:42:14;;;;;;;0.30;0.23;;;22.90;90.10;;;;;;6056968;29;20221;-70
2021/07/09 12:45:17;;;;;;;0.10;0.10;;;23.00;90.20;;;;;;6058077;29;20236;-70
2021/07/09 12:48:37;;;;;;;0.20;0.20;;;23.30;90.10;;;;;;6056851;29;20754;-71
2021/07/09 12:51:43;;;;;;;1.30;0.20;;;23.80;84.20;;;;;;6058013;29;20208;-71
2021/07/09 12:54:47;;;;;;;0.53;0.30;;;24.70;84.50;;;;;;6056383;29;20189;-70
2021/07/09 12:57:49;;;;;;;0.20;0.20;;;25.80;81.90;;;;;;6058329;29;20681;-71
2021/07/09 13:00:55;;;;;;;1.85;0.38;;;26.70;74.40;;;;;;6056703;29;20208;-71
2021/07/09 13:03:57;;;;;;;0.25;0.20;;;27.70;71.90;;;;;;6061951;29;20253;-72
2021/07/09 13:07:21;;;;;;;0.20;0.20;;;28.20;64.80;;;;;;6056836;29;20202;-72
2021/07/09 13:10:23;;;;;;;0.47;0.22;;;28.20;62.50;;;;;;6056019;29;20205;-71
2021/07/09 13:13:26;;;;;;;0.50;0.20;;;28.40;62.40;;;;;;6057533;29;20203;-71
2021/07/09 13:16:28;;;;;;;0.20;0.20;;;28.40;60.30;;;;;;6057187;29;20289;-72
2021/07/09 13:19:36;;;;;;;0.25;0.20;;;28.30;60.30;;;;;;6057492;29;20212;-71
2021/07/09 13:22:46;;;;;;;0.75;0.25;;;28.30;59.40;;;;;;6056011;29;20201;-70
2021/07/09 13:26:10;;;;;;;0.30;0.30;;;28.30;59.00;;;;;;6057195;29;20611;-73
2021/07/09 13:29:24;;;;;;;0.22;0.20;;;28.90;58.00;;;;;;6056340;29;20193;-72
2021/07/09 13:32:40;;;;;;;0.35;0.20;;;29.60;56.80;;;;;;6069634;29;20680;-71
2021/07/09 13:35:48;;;;;;;0.47;0.20;;;30.00;55.40;;;;;;6054955;29;20190;-71
2021/07/09 13:38:51;;;;;;;1.58;0.30;;;30.60;54.40;;;;;;6055220;29;20218;-71
2021/07/09 13:41:53;;;;;;;0.22;0.22;;;31.00;53.30;;;;;;6054484;29;20193;-70
2021/07/09 13:44:58;;;;;;;0.57;0.20;;;31.50;52.50;;;;;;6056819;29;20243;-72
2021/07/09 13:48:02;;;;;;;0.10;0.10;;;32.00;51.40;;;;;;6055234;29;20269;-72
2021/07/09 13:51:15;;;;;;;0.20;0.20;;;32.30;49.30;;;;;;6055510;29;20201;-71
2021/07/09 13:54:17;;;;;;;0.93;0.20;;;32.40;49.60;;;;;;6056442;29;20245;-73
2021/07/09 13:57:27;;;;;;;0.20;0.20;;;32.70;49.40;;;;;;6055297;29;20206;-71
2021/07/09 14:00:31;;;;;;;0.32;0.13;;;32.80;47.90;;;;;;6056220;29;20575;-71
2021/07/09 14:03:35;;;;;;;0.20;0.20;;;33.10;47.30;;;;;;6075867;29;20204;-71
2021/07/09 14:06:37;;;;;;;0.15;0.10;;;33.50;46.40;;;;;;6056473;29;20500;-72
2021/07/09 14:09:39;;;;;;;0.10;0.10;;;33.80;44.60;;;;;;6054799;29;20550;-72
2021/07/09 14:12:41;;;;;;;0.20;0.20;;;33.80;44.60;;;;;;6056237;29;20257;-71
2021/07/09 14:16:04;;;;;;;0.28;0.20;;;33.80;44.40;;;;;;6055806;29;20204;-72
2021/07/09 14:19:07;;;;;;;0.10;0.10;;;33.80;44.20;;;;;;6039661;29;20225;-73
2021/07/09 14:22:09;;;;;;;0.10;0.10;;;34.20;44.60;;;;;;6055607;29;20278;-71
2021/07/09 14:25:12;;;;;;;0.10;0.10;;;34.80;44.00;;;;;;6056102;29;20204;-71
2021/07/09 14:28:14;;;;;;;0.13;0.13;;;34.70;43.20;;;;;;6056121;29;20190;-71
2021/07/09 14:31:17;;;;;;;2.67;0.20;;;34.50;43.40;;;;;;6040746;29;20656;-72
2021/07/09 14:34:19;;;;;;;0.20;0.20;;;34.60;42.70;;;;;;6054969;29;20423;-72
2021/07/09 14:37:21;;;;;;;0.20;0.20;;;34.50;42.90;;;;;;6055404;29;20206;-72
2021/07/09 14:40:23;;;;;;;0.13;0.13;;;34.40;42.70;;;;;;6054383;29;20586;-71
2021/07/09 14:43:26;;;;;;;0.45;0.30;;;34.20;43.20;;;;;;6054268;29;20217;-72
2021/07/09 14:46:28;;;;;;;0.65;0.28;;;34.30;42.80;;;;;;6055302;29;20240;-72
2021/07/09 14:49:31;;;;;;;0.32;0.20;;;34.90;42.70;;;;;;6055544;29;20306;-72
2021/07/09 14:52:49;;;;;;;0.20;0.20;;;35.80;41.70;;;;;;6054846;29;20213;-72
2021/07/09 14:55:52;;;;;;;0.10;0.10;;;36.70;40.60;;;;;;6054350;29;20209;-71
2021/07/09 14:58:54;;;;;;;0.10;0.10;;;36.70;39.40;;;;;;6054088;29;20277;-70
2021/07/09 15:01:56;;;;;;;0.55;0.40;;;36.60;40.00;;;;;;6063842;29;20665;-72
2021/07/09 15:04:59;;;;;;;2.40;0.25;;;36.90;39.40;;;;;;6055649;29;20246;-72
2021/07/09 15:08:02;;;;;;;0.20;0.20;;;37.40;38.20;;;;;;6054822;29;20208;-73
2021/07/09 15:11:04;;;;;;;0.52;0.20;;;37.80;37.60;;;;;;6054906;29;20193;-72
2021/07/09 15:14:22;;;;;;;0.10;0.10;;;37.30;37.60;;;;;;6054751;29;20650;-72
2021/07/09 15:17:25;;;;;;;1.65;0.40;;;36.00;38.40;;;;;;6055068;29;20209;-71
2021/07/09 15:20:27;;;;;;;0.35;0.28;;;34.90;39.40;;;;;;6054713;29;20573;-71
2021/07/09 15:23:29;;;;;;;0.75;0.22;;;33.50;40.70;;;;;;6054521;29;20212;-72
2021/07/09 15:26:32;;;;;;;0.20;0.20;;;32.20;42.40;;;;;;6054942;29;20323;-72
2021/07/09 15:29:34;;;;;;;0.20;0.20;;;32.40;42.30;;;;;;6054572;29;20204;-73
2021/07/09 15:32:37;;;;;;;1.55;0.40;;;32.70;41.80;;;;;;6068541;29;20200;-71
2021/07/09 15:35:39;;;;;;;0.30;0.28;;;32.80;41.30;;;;;;6058398;29;20201;-72
2021/07/09 15:38:41;;;;;;;0.98;0.20;;;32.20;42.30;;;;;;6054030;29;20209;-70
2021/07/09 15:41:45;;;;;;;0.40;0.30;;;32.50;42.40;;;;;;6054475;29;20198;-73
2021/07/09 15:44:47;;;;;;;0.65;0.20;;;33.50;41.70;;;;;;6053988;29;20233;-71
2021/07/09 15:47:49;;;;;;;0.10;0.10;;;34.00;40.70;;;;;;6053308;29;20673;-71
2021/07/09 15:50:51;;;;;;;1.27;0.20;;;33.40;41.30;;;;;;6052688;29;20296;-71
2021/07/09 15:53:54;;;;;;;2.47;0.30;;;32.10;42.40;;;;;;6054291;29;20192;-71
2021/07/09 15:56:59;;;;;;;1.10;0.25;;;30.60;43.70;;;;;;6054418;29;20209;-71
2021/07/09 16:00:02;;;;;;;0.22;0.20;;;29.20;46.00;;;;;;6053981;29;20304;-71